Terminal Aerodrome Forecast
Issued by NWS

Home | Current Version | Previous Version | Text Only | Print | Product List | Glossary On
Versions: 1 2 3 4 5 6 7 8 9 10 11 12 13 14 15 16 17 18 19
135
FTAK31 PAJN 291738
TAFAKT
TAF
PAKT 291738Z 2918/3018 34008KT P6SM FEW025 OVC070
     FM292100 33009KT P6SM VCSH SCT022 BKN035 OVC080
     FM300600 32005KT P6SM VCSH SCT015 BKN025 OVC040
     FM300900 32005KT P6SM VCSH BKN015 OVC022
      AMD LTD TO CLD VIS AND WIND 3006/3015=

USA.gov is the U.S. government's official web portal to all federal, state and local government web resources and services.